Time;durP1;ratioP1;P1;durP2;ratioP2;P2;SDS_P1;SDS_P2;PMS_P1;PMS_P2;Temp;Humidity;BMP_temperature;BMP_pressure;BME280_temperature;BME280_humidity;BME280_pressure;Samples;Min_cycle;Max_cycle;Signal;HPM_P1;HPM_P2
2023/09/07 00:00:42;;;;;;;8.17;7.33;;;17.90;99.90;;;;;;5025576;28;20810;-62
2023/09/07 00:03:11;;;;;;;8.70;7.33;;;17.90;99.90;;;;;;5032004;28;20201;-60
2023/09/07 00:05:39;;;;;;;13.37;8.23;;;17.80;99.90;;;;;;5028270;28;20688;-62
2023/09/07 00:08:08;;;;;;;8.27;7.00;;;17.80;99.90;;;;;;5028497;28;20228;-61
2023/09/07 00:10:38;;;;;;;7.23;6.53;;;17.80;99.90;;;;;;5026782;28;20228;-63
2023/09/07 00:13:06;;;;;;;7.33;6.73;;;17.80;99.90;;;;;;5027619;28;20692;-61
2023/09/07 00:15:38;;;;;;;8.33;7.07;;;17.70;99.90;;;;;;5025229;28;20695;-61
2023/09/07 00:18:06;;;;;;;7.57;6.83;;;17.70;99.90;;;;;;5025925;28;20603;-62
2023/09/07 00:20:35;;;;;;;7.80;6.27;;;17.70;99.90;;;;;;5024174;28;20241;-62
2023/09/07 00:23:04;;;;;;;6.70;6.00;;;17.60;99.90;;;;;;5028769;28;20221;-62
2023/09/07 00:25:32;;;;;;;8.30;5.90;;;17.60;99.90;;;;;;5026758;28;20222;-62
2023/09/07 00:28:02;;;;;;;6.70;6.20;;;17.60;99.90;;;;;;5030876;28;20216;-62
2023/09/07 00:30:30;;;;;;;6.87;6.30;;;17.50;99.90;;;;;;5029184;28;20225;-62
2023/09/07 00:32:59;;;;;;;6.80;6.10;;;17.50;99.90;;;;;;5027181;28;20202;-62
2023/09/07 00:35:27;;;;;;;8.57;7.47;;;17.40;99.90;;;;;;5027666;28;20791;-62
2023/09/07 00:37:55;;;;;;;15.07;7.00;;;17.40;99.90;;;;;;5028133;28;20225;-61
2023/09/07 00:40:26;;;;;;;9.80;7.23;;;17.40;99.90;;;;;;5027616;28;20217;-62
2023/09/07 00:42:55;;;;;;;7.13;6.43;;;17.30;99.90;;;;;;5030235;28;20244;-61
2023/09/07 00:45:25;;;;;;;10.57;6.90;;;17.30;99.90;;;;;;5028229;28;20229;-61
2023/09/07 00:47:53;;;;;;;8.73;6.47;;;17.20;99.90;;;;;;5027043;28;20241;-62
2023/09/07 00:50:22;;;;;;;8.17;7.20;;;17.20;99.90;;;;;;5043848;28;20230;-61
2023/09/07 00:52:51;;;;;;;10.60;7.00;;;17.20;99.90;;;;;;5022678;28;20227;-62
2023/09/07 00:55:19;;;;;;;7.67;6.80;;;17.10;99.90;;;;;;5025773;28;20730;-62
2023/09/07 00:57:48;;;;;;;8.63;7.83;;;17.10;99.90;;;;;;5027682;28;20221;-62
2023/09/07 01:00:16;;;;;;;9.07;7.33;;;17.00;99.90;;;;;;5026254;28;20192;-62
2023/09/07 01:02:46;;;;;;;7.73;6.93;;;17.00;99.90;;;;;;5025779;28;20667;-63
2023/09/07 01:05:14;;;;;;;7.80;7.00;;;17.00;99.90;;;;;;5029812;28;20312;-62
2023/09/07 01:07:47;;;;;;;9.47;7.70;;;16.90;99.90;;;;;;5026614;28;20304;-62
2023/09/07 01:10:16;;;;;;;8.00;7.20;;;16.90;99.90;;;;;;5026963;28;20240;-63
2023/09/07 01:12:44;;;;;;;10.30;7.47;;;16.90;99.90;;;;;;5027225;28;20224;-62
2023/09/07 01:15:13;;;;;;;8.20;7.33;;;16.80;99.90;;;;;;5028019;28;20193;-62
2023/09/07 01:17:41;;;;;;;9.73;7.80;;;16.80;99.90;;;;;;5028768;28;20202;-62
2023/09/07 01:20:16;;;;;;;8.60;7.27;;;16.80;99.90;;;;;;5029760;28;20270;-63
2023/09/07 01:22:47;;;;;;;11.57;7.53;;;16.80;99.90;;;;;;5031845;28;20265;-62
2023/09/07 01:25:16;;;;;;;8.70;7.80;;;16.80;99.90;;;;;;5025878;28;20305;-62
2023/09/07 01:27:44;;;;;;;8.33;7.43;;;16.70;99.90;;;;;;5025343;28;20221;-62
2023/09/07 01:30:13;;;;;;;9.27;8.20;;;16.70;99.90;;;;;;5026869;28;20195;-62
2023/09/07 01:32:42;;;;;;;10.27;7.80;;;16.70;99.90;;;;;;5025384;28;20269;-62
2023/09/07 01:35:14;;;;;;;9.77;8.80;;;16.70;99.90;;;;;;5025393;28;20222;-61
2023/09/07 01:37:43;;;;;;;9.10;8.20;;;16.70;99.90;;;;;;5026555;28;20248;-62
2023/09/07 01:40:13;;;;;;;9.17;8.23;;;16.60;99.90;;;;;;5028016;28;20226;-61
2023/09/07 01:42:41;;;;;;;12.30;8.60;;;16.60;99.90;;;;;;5038191;28;20223;-62
2023/09/07 01:45:10;;;;;;;12.07;9.00;;;16.60;99.90;;;;;;5045087;28;20202;-61
2023/09/07 01:47:38;;;;;;;9.40;8.40;;;16.60;99.90;;;;;;5026492;28;20192;-61
2023/09/07 01:50:07;;;;;;;11.23;7.70;;;16.60;99.90;;;;;;5029301;28;20234;-62
2023/09/07 01:52:36;;;;;;;10.70;8.27;;;16.60;99.90;;;;;;5028898;28;20228;-62
2023/09/07 01:55:05;;;;;;;13.20;8.40;;;16.50;99.90;;;;;;5028895;28;20226;-61
2023/09/07 01:57:34;;;;;;;11.30;9.00;;;16.50;99.90;;;;;;5033768;28;20227;-62
2023/09/07 02:00:05;;;;;;;11.93;8.67;;;16.50;99.90;;;;;;5041750;28;20341;-61
2023/09/07 02:02:33;;;;;;;13.00;8.60;;;16.50;99.90;;;;;;5048157;28;20188;-61
2023/09/07 02:05:02;;;;;;;13.73;8.20;;;16.50;99.90;;;;;;5032444;28;20218;-61
2023/09/07 02:07:30;;;;;;;8.83;7.93;;;16.50;99.90;;;;;;5024129;28;20220;-62
2023/09/07 02:09:59;;;;;;;8.70;7.80;;;16.50;99.90;;;;;;5026464;28;20237;-62
2023/09/07 02:12:27;;;;;;;8.90;7.50;;;16.50;99.90;;;;;;5028219;28;20248;-63
2023/09/07 02:14:58;;;;;;;8.80;8.00;;;16.40;99.90;;;;;;5024902;28;20231;-61
2023/09/07 02:17:27;;;;;;;8.83;7.37;;;16.40;99.90;;;;;;5024432;28;20222;-62
2023/09/07 02:19:55;;;;;;;14.30;8.47;;;16.30;99.90;;;;;;5022099;28;20308;-62
2023/09/07 02:22:24;;;;;;;7.80;7.10;;;16.30;99.90;;;;;;5034993;28;20222;-61
2023/09/07 02:24:52;;;;;;;11.57;8.10;;;16.20;99.90;;;;;;5033058;28;20217;-61
2023/09/07 02:27:20;;;;;;;8.37;7.57;;;16.20;99.90;;;;;;5025739;28;20246;-61
2023/09/07 02:29:49;;;;;;;8.23;7.30;;;16.10;99.90;;;;;;5019363;28;20221;-62
2023/09/07 02:32:18;;;;;;;8.00;7.20;;;16.10;99.90;;;;;;5021545;28;20216;-62
2023/09/07 02:34:48;;;;;;;9.53;7.10;;;16.20;99.90;;;;;;5022929;28;20319;-62
2023/09/07 02:37:17;;;;;;;9.23;7.03;;;16.10;99.90;;;;;;5024954;28;20224;-61
2023/09/07 02:39:45;;;;;;;8.03;6.77;;;16.00;99.90;;;;;;5024100;28;20232;-62
2023/09/07 02:42:14;;;;;;;7.50;6.80;;;16.00;99.90;;;;;;5019684;28;20196;-62
2023/09/07 02:44:42;;;;;;;7.80;7.00;;;15.90;99.90;;;;;;5023592;28;20212;-62
2023/09/07 02:47:11;;;;;;;8.40;6.93;;;15.90;99.90;;;;;;5019666;28;20365;-62
2023/09/07 02:49:42;;;;;;;10.10;7.00;;;15.90;99.90;;;;;;5024950;28;20219;-62
2023/09/07 02:52:10;;;;;;;9.83;6.63;;;15.90;99.90;;;;;;5026850;28;20225;-63
2023/09/07 02:54:38;;;;;;;6.60;6.00;;;15.90;99.90;;;;;;5022683;28;20786;-63
2023/09/07 02:57:07;;;;;;;8.40;6.60;;;15.90;99.90;;;;;;5020772;28;20617;-62
2023/09/07 02:59:35;;;;;;;8.07;6.90;;;15.80;99.90;;;;;;5025118;28;20193;-63
2023/09/07 03:02:04;;;;;;;7.20;6.50;;;15.80;99.90;;;;;;5019271;28;20233;-62
2023/09/07 03:04:32;;;;;;;8.63;6.23;;;15.80;99.90;;;;;;5021933;28;20811;-63
2023/09/07 03:07:03;;;;;;;7.53;6.83;;;15.80;99.90;;;;;;5023352;28;20235;-62
2023/09/07 03:09:31;;;;;;;7.77;5.83;;;15.70;99.90;;;;;;5024564;28;20240;-63
2023/09/07 03:12:00;;;;;;;11.10;7.33;;;15.70;99.90;;;;;;5024567;28;20232;-62
2023/09/07 03:14:28;;;;;;;8.20;6.60;;;15.70;99.90;;;;;;5021897;28;20194;-62
2023/09/07 03:16:56;;;;;;;10.87;6.37;;;15.60;99.90;;;;;;5026881;28;20573;-63
2023/09/07 03:19:25;;;;;;;9.67;6.53;;;15.60;99.90;;;;;;5026535;28;20231;-63
2023/09/07 03:21:55;;;;;;;6.77;6.10;;;15.60;99.90;;;;;;5021002;28;20335;-63
2023/09/07 03:24:26;;;;;;;8.23;5.90;;;15.60;99.90;;;;;;5019012;28;20323;-62
2023/09/07 03:26:55;;;;;;;9.37;6.33;;;15.50;99.90;;;;;;5025189;28;20181;-63
2023/09/07 03:29:23;;;;;;;7.43;5.97;;;15.50;99.90;;;;;;5027026;28;20228;-62
2023/09/07 03:31:52;;;;;;;6.17;5.67;;;15.50;99.90;;;;;;5020249;28;20225;-62
2023/09/07 03:34:20;;;;;;;6.17;5.67;;;15.50;99.90;;;;;;5023605;28;20295;-62
2023/09/07 03:36:49;;;;;;;8.47;5.60;;;15.50;99.90;;;;;;5031950;28;20305;-63
2023/09/07 03:39:18;;;;;;;6.40;5.83;;;15.40;99.90;;;;;;5021225;28;20303;-63
2023/09/07 03:41:48;;;;;;;9.27;5.70;;;15.40;99.90;;;;;;5022420;28;20231;-62
2023/09/07 03:44:17;;;;;;;6.87;5.40;;;15.40;99.90;;;;;;5026829;28;20223;-62
2023/09/07 03:46:45;;;;;;;12.67;6.67;;;15.40;99.90;;;;;;5022632;28;20219;-61
2023/09/07 03:49:14;;;;;;;13.10;6.87;;;15.40;99.90;;;;;;5023574;28;20224;-61
2023/09/07 03:51:42;;;;;;;9.20;6.27;;;15.30;99.90;;;;;;5024320;28;20224;-61
2023/09/07 03:54:11;;;;;;;6.40;5.80;;;15.30;99.90;;;;;;5021604;28;20219;-61
2023/09/07 03:56:40;;;;;;;8.07;5.87;;;15.30;99.90;;;;;;5022120;28;20680;-62
2023/09/07 03:59:11;;;;;;;7.40;6.50;;;15.30;99.90;;;;;;5022213;28;20229;-62
2023/09/07 04:01:39;;;;;;;8.90;6.57;;;15.30;99.90;;;;;;5023372;28;20254;-61
2023/09/07 04:04:07;;;;;;;6.63;5.80;;;15.20;99.90;;;;;;5017599;28;20220;-61
2023/09/07 04:06:36;;;;;;;7.53;5.93;;;15.20;99.90;;;;;;5022442;28;21076;-61
2023/09/07 04:09:05;;;;;;;6.97;6.33;;;15.20;99.90;;;;;;5025593;28;20204;-61
2023/09/07 04:11:33;;;;;;;6.93;6.33;;;15.20;99.90;;;;;;5024974;28;20641;-61
2023/09/07 04:14:01;;;;;;;7.00;6.30;;;15.20;99.90;;;;;;5024592;28;20226;-61
2023/09/07 04:16:31;;;;;;;7.53;6.20;;;15.10;99.90;;;;;;5023707;28;20227;-61
2023/09/07 04:18:59;;;;;;;7.13;6.20;;;15.10;99.90;;;;;;5023243;28;20230;-63
2023/09/07 04:21:28;;;;;;;13.27;6.80;;;15.10;99.90;;;;;;5024419;28;20223;-61
2023/09/07 04:23:56;;;;;;;6.80;6.20;;;15.10;99.90;;;;;;5025470;28;20205;-61
2023/09/07 04:26:25;;;;;;;8.73;6.40;;;15.00;99.90;;;;;;5042463;28;20760;-63
2023/09/07 04:28:54;;;;;;;9.47;6.83;;;15.00;99.90;;;;;;5044492;28;20338;-61
2023/09/07 04:31:24;;;;;;;9.83;6.90;;;15.00;99.90;;;;;;5045595;28;20294;-61
2023/09/07 04:33:54;;;;;;;8.60;7.20;;;15.00;99.90;;;;;;5041240;28;20227;-62
2023/09/07 04:36:22;;;;;;;10.53;6.93;;;15.00;99.90;;;;;;5042138;28;20226;-61
2023/09/07 04:38:50;;;;;;;9.33;7.03;;;14.90;99.90;;;;;;5042933;28;20546;-62
2023/09/07 04:41:19;;;;;;;8.83;7.07;;;14.90;99.90;;;;;;5043589;28;20268;-62
2023/09/07 04:43:47;;;;;;;9.80;7.60;;;14.90;99.90;;;;;;5045760;28;20264;-63
2023/09/07 04:46:16;;;;;;;9.80;6.87;;;14.90;99.90;;;;;;5046253;28;20216;-62
2023/09/07 04:48:48;;;;;;;12.13;6.90;;;14.80;99.90;;;;;;5046146;28;20686;-62
2023/09/07 04:51:19;;;;;;;8.53;6.70;;;14.80;99.90;;;;;;5046737;28;20499;-63
2023/09/07 04:53:47;;;;;;;10.60;6.30;;;14.80;99.90;;;;;;5048374;28;20217;-62
2023/09/07 04:56:17;;;;;;;7.13;6.43;;;14.80;99.90;;;;;;5042973;28;20239;-62
2023/09/07 04:58:45;;;;;;;7.47;6.47;;;14.80;99.90;;;;;;5047659;28;20233;-62
2023/09/07 05:01:13;;;;;;;7.40;6.70;;;14.80;99.90;;;;;;5047646;28;20584;-61
2023/09/07 05:03:42;;;;;;;9.27;6.53;;;14.80;99.90;;;;;;5045724;28;20218;-61
2023/09/07 05:06:10;;;;;;;9.10;6.67;;;14.80;99.90;;;;;;5042352;28;20197;-61
2023/09/07 05:08:40;;;;;;;7.87;7.10;;;14.70;99.90;;;;;;5046780;28;20228;-62
2023/09/07 05:11:09;;;;;;;8.27;7.37;;;14.70;99.90;;;;;;5045081;28;20669;-62
2023/09/07 05:13:37;;;;;;;9.97;7.40;;;14.70;99.90;;;;;;5049600;28;20223;-62
2023/09/07 05:16:05;;;;;;;13.77;8.17;;;14.70;99.90;;;;;;5043447;28;20238;-62
2023/09/07 05:18:34;;;;;;;12.37;8.47;;;14.70;99.90;;;;;;5046825;28;20228;-62
2023/09/07 05:21:11;;;;;;;10.37;8.50;;;14.70;99.90;;;;;;5045850;28;20219;-61
2023/09/07 05:23:41;;;;;;;10.00;8.90;;;14.80;99.90;;;;;;5045310;28;21036;-62
2023/09/07 05:26:10;;;;;;;16.13;9.43;;;14.70;99.90;;;;;;5040670;28;20226;-61
2023/09/07 05:28:38;;;;;;;12.63;8.83;;;14.70;99.90;;;;;;5044166;28;20739;-62
2023/09/07 05:31:06;;;;;;;21.03;11.17;;;14.80;99.90;;;;;;5044747;28;20226;-61
2023/09/07 05:33:34;;;;;;;16.90;10.77;;;14.80;99.90;;;;;;5044374;28;20225;-62
2023/09/07 05:36:03;;;;;;;13.00;11.03;;;14.80;99.90;;;;;;5043040;28;20949;-61
2023/09/07 05:38:31;;;;;;;15.97;10.87;;;14.90;99.90;;;;;;5043697;28;20700;-62
2023/09/07 05:41:03;;;;;;;20.60;11.43;;;14.90;99.90;;;;;;5046390;28;20227;-61
2023/09/07 05:43:31;;;;;;;20.63;10.90;;;14.90;99.90;;;;;;5047516;28;20333;-62
2023/09/07 05:46:00;;;;;;;24.47;12.00;;;14.90;99.90;;;;;;5041421;28;20630;-62
2023/09/07 05:48:29;;;;;;;17.63;10.70;;;15.00;99.90;;;;;;5046138;28;20270;-62
2023/09/07 05:50:58;;;;;;;18.50;10.93;;;15.10;99.90;;;;;;5046135;28;20204;-62
2023/09/07 05:53:26;;;;;;;18.90;10.90;;;15.10;99.90;;;;;;5047083;28;20722;-62
2023/09/07 05:55:54;;;;;;;17.50;10.63;;;15.10;99.90;;;;;;5043687;28;20230;-62
2023/09/07 05:58:24;;;;;;;17.77;11.43;;;15.20;99.90;;;;;;5045877;28;20400;-62
2023/09/07 06:00:52;;;;;;;22.17;11.00;;;15.20;99.90;;;;;;5042829;28;20215;-62
2023/09/07 06:03:21;;;;;;;33.60;11.70;;;15.30;99.90;;;;;;5040491;28;20688;-62
2023/09/07 06:05:49;;;;;;;22.60;11.03;;;15.30;99.90;;;;;;5048937;28;20204;-62
2023/09/07 06:08:17;;;;;;;22.13;11.73;;;15.30;99.90;;;;;;5043244;28;20578;-62
2023/09/07 06:10:46;;;;;;;20.10;12.00;;;15.40;99.90;;;;;;5043985;28;20231;-62
2023/09/07 06:13:14;;;;;;;25.10;12.43;;;15.40;99.90;;;;;;5046148;28;20234;-62
2023/09/07 06:15:44;;;;;;;18.93;11.93;;;15.50;99.90;;;;;;5044141;28;20232;-62
2023/09/07 06:18:13;;;;;;;14.33;10.73;;;15.50;99.90;;;;;;5047601;28;20212;-62
2023/09/07 06:20:41;;;;;;;20.37;12.70;;;15.60;99.90;;;;;;5044289;28;20312;-62
2023/09/07 06:23:10;;;;;;;15.43;11.70;;;15.70;99.90;;;;;;5045825;28;20286;-62
2023/09/07 06:25:38;;;;;;;15.33;11.97;;;15.90;99.90;;;;;;5044625;28;20218;-62
2023/09/07 06:28:07;;;;;;;16.07;11.87;;;16.10;99.90;;;;;;5047654;28;20220;-62
2023/09/07 06:30:35;;;;;;;17.33;11.80;;;16.40;99.90;;;;;;5047867;28;20244;-62
2023/09/07 06:33:05;;;;;;;14.47;11.13;;;16.60;99.90;;;;;;5040339;28;20201;-62
2023/09/07 06:35:34;;;;;;;13.17;10.90;;;16.90;99.90;;;;;;5044115;28;20650;-62
2023/09/07 06:38:03;;;;;;;14.23;9.60;;;17.20;99.90;;;;;;5042051;28;20249;-62
2023/09/07 06:40:31;;;;;;;13.60;10.37;;;17.50;99.90;;;;;;5046050;28;20231;-62
2023/09/07 06:43:00;;;;;;;14.57;9.27;;;17.70;99.90;;;;;;5044327;28;20228;-62
2023/09/07 06:45:28;;;;;;;12.27;9.13;;;18.00;99.90;;;;;;5042607;28;20232;-62
2023/09/07 06:47:56;;;;;;;11.53;8.67;;;18.20;99.90;;;;;;5046621;28;20220;-62
2023/09/07 06:50:26;;;;;;;10.80;7.60;;;18.50;99.90;;;;;;5046215;28;20227;-62
2023/09/07 06:52:55;;;;;;;12.67;8.27;;;18.70;99.90;;;;;;5048227;28;20236;-62
2023/09/07 06:55:23;;;;;;;14.77;8.73;;;19.00;99.90;;;;;;5048248;28;20514;-62
2023/09/07 06:57:51;;;;;;;14.00;9.03;;;19.30;99.90;;;;;;5048012;28;20299;-62
2023/09/07 07:00:20;;;;;;;12.57;7.97;;;19.60;99.90;;;;;;5048901;28;20235;-62
2023/09/07 07:02:48;;;;;;;21.17;7.83;;;19.90;99.90;;;;;;5045541;28;20280;-62
2023/09/07 07:05:17;;;;;;;8.00;7.03;;;20.10;99.90;;;;;;5046990;28;20225;-62
2023/09/07 07:07:47;;;;;;;10.23;6.83;;;20.40;99.90;;;;;;5046137;28;20584;-62
2023/09/07 07:10:15;;;;;;;8.83;7.23;;;20.50;99.90;;;;;;5048466;28;20351;-62
2023/09/07 07:12:44;;;;;;;10.97;6.47;;;20.80;99.90;;;;;;5046679;28;20220;-62
2023/09/07 07:15:12;;;;;;;9.07;6.60;;;20.90;99.90;;;;;;5048120;28;20517;-62
2023/09/07 07:17:41;;;;;;;6.73;6.07;;;21.10;99.90;;;;;;5046954;28;20201;-63
2023/09/07 07:20:10;;;;;;;7.63;6.37;;;21.30;99.90;;;;;;5046418;28;20228;-62
2023/09/07 07:22:38;;;;;;;9.30;6.47;;;21.50;99.90;;;;;;5049030;28;20225;-63
2023/09/07 07:25:10;;;;;;;8.33;6.23;;;21.70;99.90;;;;;;5048539;28;20594;-62
2023/09/07 07:27:38;;;;;;;11.63;6.90;;;21.90;99.90;;;;;;5047594;28;20236;-63
2023/09/07 07:30:07;;;;;;;9.40;5.70;;;22.20;99.90;;;;;;5077110;28;20193;-63
2023/09/07 07:32:36;;;;;;;8.33;5.60;;;22.30;99.90;;;;;;5048329;28;20235;-63
2023/09/07 07:35:04;;;;;;;7.47;5.77;;;22.50;99.90;;;;;;5046701;28;20578;-63
2023/09/07 07:37:33;;;;;;;9.43;5.60;;;22.60;99.90;;;;;;5047101;28;20213;-62
2023/09/07 07:40:01;;;;;;;8.73;5.30;;;22.80;99.90;;;;;;5046360;28;20231;-62
2023/09/07 07:42:32;;;;;;;8.83;5.93;;;23.00;99.90;;;;;;5048721;28;20221;-63
2023/09/07 07:45:00;;;;;;;7.90;5.70;;;23.10;99.90;;;;;;5051630;28;20206;-62
2023/09/07 07:47:29;;;;;;;8.17;5.40;;;23.30;99.90;;;;;;5047832;28;20221;-63
2023/09/07 07:49:57;;;;;;;5.87;5.30;;;23.40;99.90;;;;;;5048543;28;20324;-62
2023/09/07 07:52:26;;;;;;;7.53;5.43;;;23.50;99.90;;;;;;5046574;28;20218;-62
2023/09/07 07:54:54;;;;;;;7.50;5.27;;;23.70;99.90;;;;;;5045191;28;20250;-62
2023/09/07 07:57:23;;;;;;;6.53;5.37;;;23.80;99.90;;;;;;5045503;28;20314;-62
2023/09/07 07:59:53;;;;;;;5.43;4.90;;;23.90;99.90;;;;;;5046552;28;20603;-62
2023/09/07 08:02:21;;;;;;;5.73;5.23;;;24.10;99.90;;;;;;5045709;28;20223;-62
2023/09/07 08:04:49;;;;;;;6.73;5.07;;;24.10;99.90;;;;;;5041603;28;20769;-62
2023/09/07 08:07:18;;;;;;;6.67;4.40;;;24.20;99.90;;;;;;5047695;28;20243;-62
2023/09/07 08:09:46;;;;;;;5.80;4.60;;;24.30;99.90;;;;;;5046960;28;20315;-62
2023/09/07 08:12:15;;;;;;;5.27;4.77;;;24.40;99.90;;;;;;5043047;28;20225;-62
2023/09/07 08:14:46;;;;;;;5.83;4.50;;;24.50;99.90;;;;;;5052930;28;20196;-62
2023/09/07 08:17:15;;;;;;;9.70;4.67;;;24.70;99.90;;;;;;5048757;28;20226;-62
2023/09/07 08:19:44;;;;;;;7.43;4.50;;;24.80;99.90;;;;;;5048392;28;20863;-62
2023/09/07 08:22:12;;;;;;;5.13;4.50;;;24.90;99.90;;;;;;5047919;28;20301;-63
2023/09/07 08:24:42;;;;;;;5.93;4.90;;;24.90;99.90;;;;;;5046543;28;20579;-63
2023/09/07 08:27:11;;;;;;;6.17;4.63;;;25.00;99.90;;;;;;5050691;28;20254;-62
2023/09/07 08:29:39;;;;;;;7.83;4.70;;;25.10;99.90;;;;;;5049592;28;20204;-62
2023/09/07 08:32:08;;;;;;;6.87;4.60;;;25.30;99.90;;;;;;5051793;28;20302;-62
2023/09/07 08:34:40;;;;;;;5.13;4.40;;;25.50;99.90;;;;;;5068232;28;20302;-62
2023/09/07 08:37:08;;;;;;;5.87;4.47;;;25.60;99.90;;;;;;5044000;28;20234;-62
2023/09/07 08:39:39;;;;;;;6.53;4.83;;;25.70;99.90;;;;;;5041655;28;20244;-62
2023/09/07 08:42:09;;;;;;;6.07;5.03;;;25.80;99.90;;;;;;5051539;28;20268;-63
2023/09/07 08:44:40;;;;;;;4.23;4.00;;;25.80;99.90;;;;;;5048341;28;20311;-62
2023/09/07 08:47:09;;;;;;;5.43;4.03;;;25.90;99.90;;;;;;5047464;28;20228;-62
2023/09/07 08:49:39;;;;;;;6.13;4.23;;;26.00;99.90;;;;;;5046957;28;20720;-63
2023/09/07 08:52:08;;;;;;;4.70;4.30;;;26.00;99.90;;;;;;5047784;28;22262;-63
2023/09/07 08:54:38;;;;;;;7.53;4.30;;;26.00;99.90;;;;;;5050569;28;20208;-62
2023/09/07 08:57:08;;;;;;;6.00;4.03;;;26.20;99.90;;;;;;5046773;28;20204;-63
2023/09/07 08:59:37;;;;;;;4.70;4.23;;;26.20;99.90;;;;;;5047636;28;20193;-62
2023/09/07 09:02:09;;;;;;;4.10;3.80;;;26.10;99.90;;;;;;5045690;28;20221;-62
2023/09/07 09:04:40;;;;;;;4.33;3.80;;;26.10;99.90;;;;;;5049705;28;20233;-62
2023/09/07 09:07:09;;;;;;;4.40;4.00;;;26.20;99.90;;;;;;5050174;28;20236;-63
2023/09/07 09:09:38;;;;;;;4.57;4.17;;;26.30;99.90;;;;;;5048417;28;20260;-62
2023/09/07 09:12:10;;;;;;;5.30;4.00;;;26.30;99.90;;;;;;5048561;28;20229;-62
2023/09/07 09:14:38;;;;;;;3.80;3.50;;;26.40;99.90;;;;;;5049605;28;20207;-62
2023/09/07 09:17:06;;;;;;;3.87;3.60;;;26.50;99.90;;;;;;5047590;28;20227;-63
2023/09/07 09:19:37;;;;;;;7.20;4.10;;;26.50;99.90;;;;;;5045895;28;20225;-63
2023/09/07 09:22:07;;;;;;;3.83;3.63;;;26.50;99.90;;;;;;5047504;28;20320;-62
2023/09/07 09:24:36;;;;;;;3.97;3.67;;;26.60;99.90;;;;;;5047144;28;20233;-63
2023/09/07 09:27:05;;;;;;;6.10;3.90;;;26.60;99.90;;;;;;5046940;28;20197;-62
2023/09/07 09:29:37;;;;;;;4.07;3.73;;;26.70;99.90;;;;;;5049168;28;20197;-62
2023/09/07 09:32:07;;;;;;;4.30;4.00;;;26.90;99.90;;;;;;5051227;28;20228;-61
2023/09/07 09:34:36;;;;;;;4.30;4.07;;;27.10;99.90;;;;;;5044934;28;20232;-62
2023/09/07 09:37:14;;;;;;;5.13;3.70;;;27.20;99.90;;;;;;5046424;28;20281;-62
2023/09/07 09:39:43;;;;;;;3.75;3.50;;;27.30;99.90;;;;;;5048035;28;20223;-62
2023/09/07 09:42:13;;;;;;;4.78;4.20;;;27.40;99.90;;;;;;5047133;28;20640;-62
2023/09/07 09:44:43;;;;;;;3.78;3.55;;;27.40;99.90;;;;;;5046678;28;20601;-62
2023/09/07 09:47:14;;;;;;;6.60;3.65;;;27.60;99.90;;;;;;5048757;28;20217;-62
2023/09/07 09:49:43;;;;;;;7.93;4.00;;;27.60;99.90;;;;;;5049788;28;20235;-62
2023/09/07 09:52:13;;;;;;;4.40;4.00;;;27.70;99.90;;;;;;5045309;28;20236;-62
2023/09/07 09:54:43;;;;;;;5.53;3.97;;;27.70;99.90;;;;;;5047940;28;20231;-62
2023/09/07 09:57:12;;;;;;;4.38;4.07;;;27.80;99.90;;;;;;5047137;28;20245;-62
2023/09/07 09:59:40;;;;;;;4.30;4.00;;;27.90;99.90;;;;;;5049886;28;20202;-62
2023/09/07 10:02:09;;;;;;;5.35;4.30;;;27.90;99.90;;;;;;5050680;28;20223;-62
2023/09/07 10:04:38;;;;;;;6.38;4.10;;;28.00;99.90;;;;;;5048234;28;20589;-62
2023/09/07 10:07:06;;;;;;;4.53;3.92;;;28.20;99.90;;;;;;5043884;28;20227;-62
2023/09/07 10:09:39;;;;;;;4.00;3.60;;;28.30;99.90;;;;;;5044863;28;20720;-63
2023/09/07 10:12:13;;;;;;;4.07;3.88;;;28.30;99.90;;;;;;5042949;28;20227;-62
2023/09/07 10:14:50;;;;;;;7.63;4.22;;;28.50;99.90;;;;;;5045105;28;20299;-62
2023/09/07 10:17:23;;;;;;;5.18;4.15;;;28.60;99.90;;;;;;5046918;28;20226;-63
2023/09/07 10:20:05;;;;;;;3.90;3.60;;;28.80;99.90;;;;;;5043023;28;20228;-62
2023/09/07 10:22:34;;;;;;;3.88;3.60;;;29.00;99.90;;;;;;5048761;28;20575;-62
2023/09/07 10:25:06;;;;;;;4.10;3.47;;;29.40;99.90;;;;;;5045245;28;20575;-62
2023/09/07 10:27:39;;;;;;;3.60;3.28;;;29.30;99.90;;;;;;5047266;28;20298;-62
2023/09/07 10:30:12;;;;;;;4.68;3.40;;;29.60;99.90;;;;;;5052705;28;20223;-62
2023/09/07 10:32:41;;;;;;;3.60;3.25;;;29.70;99.90;;;;;;5038149;28;20250;-63
2023/09/07 10:35:14;;;;;;;4.15;3.47;;;29.70;99.90;;;;;;5048132;28;20600;-62
2023/09/07 10:37:45;;;;;;;3.50;3.30;;;29.80;99.90;;;;;;5044132;28;20225;-63
2023/09/07 10:40:21;;;;;;;4.07;3.63;;;29.80;99.90;;;;;;5040855;28;20216;-63
2023/09/07 10:42:49;;;;;;;3.38;3.17;;;29.90;99.90;;;;;;5045276;28;20231;-63
2023/09/07 10:45:18;;;;;;;3.55;3.20;;;30.10;99.90;;;;;;5045511;28;20280;-62
2023/09/07 10:47:47;;;;;;;6.10;3.47;;;30.10;99.90;;;;;;5047785;28;20201;-63
2023/09/07 10:50:15;;;;;;;3.28;3.17;;;30.20;99.90;;;;;;5041542;28;20220;-62
2023/09/07 10:52:44;;;;;;;3.45;3.25;;;30.30;99.90;;;;;;5043424;28;20332;-62
2023/09/07 10:55:14;;;;;;;3.10;3.00;;;30.40;99.90;;;;;;5044284;28;20592;-63
2023/09/07 10:57:43;;;;;;;4.50;4.10;;;30.50;99.90;;;;;;5041252;28;20754;-62
2023/09/07 11:00:13;;;;;;;4.72;3.30;;;30.40;99.90;;;;;;5044663;28;20210;-63
2023/09/07 11:02:43;;;;;;;3.10;3.00;;;30.50;99.90;;;;;;5043914;28;20289;-63
2023/09/07 11:05:13;;;;;;;3.50;3.30;;;30.60;99.90;;;;;;5038147;28;20217;-62
2023/09/07 11:07:43;;;;;;;3.38;2.80;;;30.70;99.90;;;;;;5047065;28;20220;-61
2023/09/07 11:10:12;;;;;;;3.40;3.20;;;30.80;99.90;;;;;;5044358;28;20221;-61
2023/09/07 11:12:41;;;;;;;3.20;3.00;;;30.80;99.90;;;;;;5042654;28;20311;-62
2023/09/07 11:15:11;;;;;;;3.20;3.03;;;30.90;99.90;;;;;;5043544;28;20239;-62
2023/09/07 11:17:40;;;;;;;3.20;3.10;;;31.00;99.90;;;;;;5049471;28;20271;-62
2023/09/07 11:20:10;;;;;;;3.20;3.00;;;31.20;99.90;;;;;;5050149;28;20318;-61
2023/09/07 11:22:39;;;;;;;3.63;3.33;;;31.30;99.90;;;;;;5037687;28;20236;-61
2023/09/07 11:25:28;;;;;;;4.13;3.35;;;31.40;99.90;;;;;;5044658;28;20232;-61
2023/09/07 11:27:59;;;;;;;4.60;3.00;;;31.30;99.90;;;;;;5043377;28;20231;-61
2023/09/07 11:30:27;;;;;;;3.67;3.40;;;31.30;99.90;;;;;;5041668;28;20568;-61
2023/09/07 11:33:02;;;;;;;4.20;3.50;;;31.40;99.90;;;;;;5046941;28;20205;-61
2023/09/07 11:35:30;;;;;;;3.90;3.60;;;31.40;99.90;;;;;;5040505;28;20215;-61
2023/09/07 11:38:01;;;;;;;9.48;3.75;;;31.70;99.90;;;;;;5048520;28;21031;-61
2023/09/07 11:40:29;;;;;;;9.80;3.78;;;31.80;99.90;;;;;;5044322;28;20313;-61
2023/09/07 11:42:58;;;;;;;3.85;3.55;;;32.00;99.90;;;;;;5047533;28;20229;-61
2023/09/07 11:45:27;;;;;;;3.80;3.50;;;32.00;99.90;;;;;;5044813;28;21169;-62
2023/09/07 11:47:55;;;;;;;3.80;3.45;;;32.10;99.90;;;;;;5051468;28;20181;-61
2023/09/07 11:50:24;;;;;;;9.07;3.38;;;32.10;99.90;;;;;;5057045;28;20303;-61
2023/09/07 11:52:53;;;;;;;3.70;3.30;;;32.00;99.90;;;;;;5047887;28;20221;-61
2023/09/07 11:55:21;;;;;;;3.72;3.53;;;32.00;99.90;;;;;;5053790;28;20224;-62
2023/09/07 11:57:51;;;;;;;4.90;3.47;;;31.90;99.90;;;;;;5047292;28;20220;-62
2023/09/07 12:00:22;;;;;;;3.83;3.53;;;31.90;99.90;;;;;;5055066;28;20251;-62
2023/09/07 12:02:50;;;;;;;3.67;3.40;;;31.60;99.90;;;;;;5049236;28;20281;-62
2023/09/07 12:05:19;;;;;;;3.90;3.58;;;31.70;99.90;;;;;;5049148;28;20591;-62
2023/09/07 12:07:47;;;;;;;4.50;3.33;;;31.80;99.90;;;;;;5053657;28;20237;-62
2023/09/07 12:10:16;;;;;;;4.22;3.72;;;31.70;99.90;;;;;;5049702;28;20689;-62
2023/09/07 12:12:45;;;;;;;5.72;3.63;;;31.60;99.90;;;;;;5047037;28;20233;-62
2023/09/07 12:15:14;;;;;;;4.57;3.80;;;31.60;99.90;;;;;;5046150;28;20678;-62
2023/09/07 12:17:44;;;;;;;3.78;3.10;;;31.50;99.90;;;;;;5050151;28;20873;-62
2023/09/07 12:20:14;;;;;;;9.30;3.80;;;31.50;99.90;;;;;;5048699;28;20222;-62
2023/09/07 12:22:42;;;;;;;3.88;3.42;;;31.60;99.90;;;;;;5050169;28;20695;-62
2023/09/07 12:25:11;;;;;;;7.70;3.58;;;31.40;99.90;;;;;;5051336;28;20289;-62
2023/09/07 12:27:43;;;;;;;4.90;3.72;;;31.50;99.90;;;;;;5053004;28;20220;-62
2023/09/07 12:30:23;;;;;;;3.75;3.47;;;31.60;99.90;;;;;;5049629;28;20220;-62
2023/09/07 12:32:53;;;;;;;3.83;3.63;;;31.70;99.90;;;;;;5056870;28;20539;-62
2023/09/07 12:35:22;;;;;;;3.92;3.50;;;31.60;99.90;;;;;;5054476;28;20220;-62
2023/09/07 12:37:51;;;;;;;4.80;3.65;;;31.60;99.90;;;;;;5052254;28;20216;-62
2023/09/07 12:40:19;;;;;;;7.20;4.13;;;31.60;99.90;;;;;;5050330;28;20325;-62
2023/09/07 12:42:47;;;;;;;4.95;3.42;;;31.50;99.90;;;;;;5054261;28;20231;-62
2023/09/07 12:45:16;;;;;;;4.28;3.92;;;31.40;99.90;;;;;;5058962;28;20267;-62
2023/09/07 12:47:44;;;;;;;7.15;4.10;;;31.40;99.90;;;;;;5056476;28;20197;-62
2023/09/07 12:50:14;;;;;;;3.60;3.38;;;31.20;99.90;;;;;;5050605;28;20228;-62
2023/09/07 12:52:42;;;;;;;4.28;3.88;;;31.30;99.90;;;;;;5050763;28;20220;-62